首页
METAR-TAF:

METAR-TAF

机场 :

蒂瓦特機場

蒂瓦特, 蒙特內哥羅

纬度: 42-24N, 经度: 018-44E, 海拔: 5米

当前天气观测

该预报发布于29分钟前的01:00 UTC
静风
温度 11°C
湿度 100%
气压 1017 hPa
能见度10公里或以上
1500米以下无云,无积雨云

METAR: LYTV 170100Z 00000KT CAVOK 11/11 Q1017

时间: 03:29 (01:29 UTC)

预报

该预报发布于2小时和29分钟前的23:00 UTC
预报有效从17日的 00点(UTC)到 17日的 24点(UTC)
风速2节,风向多变
能见度10公里或以上
1500米以下无云,无积雨云
几率 30% :
短暂存在
从 17日的 04点(UTC)到 17日的 06点(UTC)
能見度: 2000
轻雾

TAF: LYTV 162300Z 1700/1724 VRB02KT CAVOK TX24/1713Z TN09/1705Z PROB30 TEMPO 1704/1706 2000 BR

超过4000个机场的气象观测和天气预报(METAR&TAF报告)。

可查询的气象台以黄色和红色小点在地图上表示。

将鼠标移到小点上方,可查看气象台名称。

然后点击查看天气观测和预报。

如需切换地图:点击带黑十字的绿色按钮放大地图;点击带横线的绿色按钮缩小地图;或者点击绿色箭头查看邻近地区的地图。


METAR-TAF: